sensor_id;sensor_type;location;lat;lon;timestamp;temperature;humidity
64833;HTU21D;51290;45.060;38.948;2023-03-14T00:02:00;3.45;70.28
64833;HTU21D;51290;45.060;38.948;2023-03-14T00:04:26;3.47;70.32
64833;HTU21D;51290;45.060;38.948;2023-03-14T00:06:52;3.49;70.72
64833;HTU21D;51290;45.060;38.948;2023-03-14T00:09:18;3.54;70.33
64833;HTU21D;51290;45.060;38.948;2023-03-14T00:11:44;3.53;71.58
64833;HTU21D;51290;45.060;38.948;2023-03-14T00:14:10;3.53;70.60
64833;HTU21D;51290;45.060;38.948;2023-03-14T00:16:36;3.55;70.38
64833;HTU21D;51290;45.060;38.948;2023-03-14T00:19:02;3.58;70.41
64833;HTU21D;51290;45.060;38.948;2023-03-14T00:21:28;3.61;70.27
64833;HTU21D;51290;45.060;38.948;2023-03-14T00:23:54;3.64;70.97
64833;HTU21D;51290;45.060;38.948;2023-03-14T00:26:21;3.65;70.72
64833;HTU21D;51290;45.060;38.948;2023-03-14T00:28:51;3.64;70.84
64833;HTU21D;51290;45.060;38.948;2023-03-14T00:31:17;3.67;71.49
64833;HTU21D;51290;45.060;38.948;2023-03-14T00:33:44;3.69;70.93
64833;HTU21D;51290;45.060;38.948;2023-03-14T00:36:13;3.69;71.23
64833;HTU21D;51290;45.060;38.948;2023-03-14T00:38:41;3.69;71.12
64833;HTU21D;51290;45.060;38.948;2023-03-14T00:41:09;3.71;71.16
64833;HTU21D;51290;45.060;38.948;2023-03-14T00:43:35;3.75;70.94
64833;HTU21D;51290;45.060;38.948;2023-03-14T00:46:02;3.76;71.30
64833;HTU21D;51290;45.060;38.948;2023-03-14T00:48:28;3.77;70.95
64833;HTU21D;51290;45.060;38.948;2023-03-14T00:50:54;3.82;70.80
64833;HTU21D;51290;45.060;38.948;2023-03-14T00:53:21;3.84;70.61
64833;HTU21D;51290;45.060;38.948;2023-03-14T00:55:47;3.87;70.47
64833;HTU21D;51290;45.060;38.948;2023-03-14T00:58:14;3.89;70.54
64833;HTU21D;51290;45.060;38.948;2023-03-14T01:00:41;3.92;70.95
64833;HTU21D;51290;45.060;38.948;2023-03-14T01:03:08;3.92;70.90
64833;HTU21D;51290;45.060;38.948;2023-03-14T01:05:34;3.93;71.00
64833;HTU21D;51290;45.060;38.948;2023-03-14T01:08:00;3.94;70.88
64833;HTU21D;51290;45.060;38.948;2023-03-14T01:10:26;3.95;70.77
64833;HTU21D;51290;45.060;38.948;2023-03-14T01:12:52;3.98;71.23
64833;HTU21D;51290;45.060;38.948;2023-03-14T01:15:19;4.00;70.61
64833;HTU21D;51290;45.060;38.948;2023-03-14T01:17:45;4.04;70.49
64833;HTU21D;51290;45.060;38.948;2023-03-14T01:20:13;4.07;70.41
64833;HTU21D;51290;45.060;38.948;2023-03-14T01:22:39;4.10;70.39
64833;HTU21D;51290;45.060;38.948;2023-03-14T01:25:07;4.15;70.41
64833;HTU21D;51290;45.060;38.948;2023-03-14T01:27:33;4.18;70.39
64833;HTU21D;51290;45.060;38.948;2023-03-14T01:29:59;4.20;70.37
64833;HTU21D;51290;45.060;38.948;2023-03-14T01:32:26;4.24;70.23
64833;HTU21D;51290;45.060;38.948;2023-03-14T01:34:52;4.27;70.18
64833;HTU21D;51290;45.060;38.948;2023-03-14T01:37:19;4.30;70.22
64833;HTU21D;51290;45.060;38.948;2023-03-14T01:39:47;4.32;70.15
64833;HTU21D;51290;45.060;38.948;2023-03-14T01:42:15;4.34;70.32
64833;HTU21D;51290;45.060;38.948;2023-03-14T01:44:56;4.36;70.49
64833;HTU21D;51290;45.060;38.948;2023-03-14T01:47:23;4.38;70.47
64833;HTU21D;51290;45.060;38.948;2023-03-14T01:50:08;4.39;70.55
64833;HTU21D;51290;45.060;38.948;2023-03-14T01:52:41;4.41;70.26
64833;HTU21D;51290;45.060;38.948;2023-03-14T01:55:12;4.43;70.21
64833;HTU21D;51290;45.060;38.948;2023-03-14T01:57:42;4.42;70.44
64833;HTU21D;51290;45.060;38.948;2023-03-14T02:00:16;4.41;70.28
64833;HTU21D;51290;45.060;38.948;2023-03-14T02:02:58;4.38;70.13
64833;HTU21D;51290;45.060;38.948;2023-03-14T02:05:30;4.36;70.03
64833;HTU21D;51290;45.060;38.948;2023-03-14T02:08:02;4.34;70.00
64833;HTU21D;51290;45.060;38.948;2023-03-14T02:10:40;4.32;70.00
64833;HTU21D;51290;45.060;38.948;2023-03-14T02:13:08;4.30;69.95
64833;HTU21D;51290;45.060;38.948;2023-03-14T02:15:44;4.27;69.93
64833;HTU21D;51290;45.060;38.948;2023-03-14T02:18:46;4.23;70.32
64833;HTU21D;51290;45.060;38.948;2023-03-14T02:21:49;4.20;70.19
64833;HTU21D;51290;45.060;38.948;2023-03-14T02:24:38;4.18;70.24
64833;HTU21D;51290;45.060;38.948;2023-03-14T02:27:15;4.17;70.21
64833;HTU21D;51290;45.060;38.948;2023-03-14T02:30:00;4.16;70.33
64833;HTU21D;51290;45.060;38.948;2023-03-14T02:32:30;4.16;70.26
64833;HTU21D;51290;45.060;38.948;2023-03-14T02:34:59;4.15;70.32
64833;HTU21D;51290;45.060;38.948;2023-03-14T02:37:54;4.15;70.31
64833;HTU21D;51290;45.060;38.948;2023-03-14T02:40:23;4.17;70.29
64833;HTU21D;51290;45.060;38.948;2023-03-14T02:42:51;4.18;70.38
64833;HTU21D;51290;45.060;38.948;2023-03-14T02:47:51;4.18;70.23
64833;HTU21D;51290;45.060;38.948;2023-03-14T02:50:23;4.17;70.30
64833;HTU21D;51290;45.060;38.948;2023-03-14T02:52:50;4.15;70.19
64833;HTU21D;51290;45.060;38.948;2023-03-14T02:55:26;4.12;70.46
64833;HTU21D;51290;45.060;38.948;2023-03-14T02:57:56;4.08;70.23
64833;HTU21D;51290;45.060;38.948;2023-03-14T03:00:22;4.08;70.25
64833;HTU21D;51290;45.060;38.948;2023-03-14T03:02:48;4.04;70.36
64833;HTU21D;51290;45.060;38.948;2023-03-14T03:05:14;4.02;70.25
64833;HTU21D;51290;45.060;38.948;2023-03-14T03:07:40;3.99;70.40
64833;HTU21D;51290;45.060;38.948;2023-03-14T03:10:06;3.99;70.38
64833;HTU21D;51290;45.060;38.948;2023-03-14T03:12:33;3.98;70.42
64833;HTU21D;51290;45.060;38.948;2023-03-14T03:14:59;3.99;70.40
64833;HTU21D;51290;45.060;38.948;2023-03-14T03:17:25;4.01;70.49
64833;HTU21D;51290;45.060;38.948;2023-03-14T03:19:50;4.02;70.54
64833;HTU21D;51290;45.060;38.948;2023-03-14T03:22:16;4.05;70.44
64833;HTU21D;51290;45.060;38.948;2023-03-14T03:24:42;4.07;70.37
64833;HTU21D;51290;45.060;38.948;2023-03-14T03:27:10;4.10;70.29
64833;HTU21D;51290;45.060;38.948;2023-03-14T03:29:36;4.14;70.32
64833;HTU21D;51290;45.060;38.948;2023-03-14T03:32:02;4.18;70.30
64833;HTU21D;51290;45.060;38.948;2023-03-14T03:34:29;4.22;70.23
64833;HTU21D;51290;45.060;38.948;2023-03-14T03:36:56;4.26;70.17
64833;HTU21D;51290;45.060;38.948;2023-03-14T03:39:23;4.29;70.14
64833;HTU21D;51290;45.060;38.948;2023-03-14T03:41:49;4.32;70.10
64833;HTU21D;51290;45.060;38.948;2023-03-14T03:44:24;4.34;70.07
64833;HTU21D;51290;45.060;38.948;2023-03-14T03:46:53;4.37;70.00
64833;HTU21D;51290;45.060;38.948;2023-03-14T03:49:19;4.38;69.94
64833;HTU21D;51290;45.060;38.948;2023-03-14T03:51:45;4.39;69.89
64833;HTU21D;51290;45.060;38.948;2023-03-14T03:54:11;4.42;69.82
64833;HTU21D;51290;45.060;38.948;2023-03-14T03:56:38;4.43;69.74
64833;HTU21D;51290;45.060;38.948;2023-03-14T03:59:05;4.45;69.71
64833;HTU21D;51290;45.060;38.948;2023-03-14T04:01:31;4.47;69.68
64833;HTU21D;51290;45.060;38.948;2023-03-14T04:03:59;4.50;69.64
64833;HTU21D;51290;45.060;38.948;2023-03-14T04:06:25;4.53;69.58
64833;HTU21D;51290;45.060;38.948;2023-03-14T04:08:54;4.58;69.54
64833;HTU21D;51290;45.060;38.948;2023-03-14T04:11:43;4.61;69.41
64833;HTU21D;51290;45.060;38.948;2023-03-14T04:14:33;4.65;69.31
64833;HTU21D;51290;45.060;38.948;2023-03-14T04:17:07;4.65;69.14
64833;HTU21D;51290;45.060;38.948;2023-03-14T04:19:33;4.68;69.10
64833;HTU21D;51290;45.060;38.948;2023-03-14T04:22:00;4.72;69.17
64833;HTU21D;51290;45.060;38.948;2023-03-14T04:24:31;4.74;69.11
64833;HTU21D;51290;45.060;38.948;2023-03-14T04:26:57;4.75;69.01
64833;HTU21D;51290;45.060;38.948;2023-03-14T04:29:24;4.77;68.82
64833;HTU21D;51290;45.060;38.948;2023-03-14T04:31:50;4.77;68.89
64833;HTU21D;51290;45.060;38.948;2023-03-14T04:34:16;4.80;68.84
64833;HTU21D;51290;45.060;38.948;2023-03-14T04:36:48;4.81;68.81
64833;HTU21D;51290;45.060;38.948;2023-03-14T04:39:19;4.82;68.71
64833;HTU21D;51290;45.060;38.948;2023-03-14T04:41:57;4.83;68.74
64833;HTU21D;51290;45.060;38.948;2023-03-14T04:44:24;4.86;68.73
64833;HTU21D;51290;45.060;38.948;2023-03-14T04:46:52;4.88;68.67
64833;HTU21D;51290;45.060;38.948;2023-03-14T04:49:18;4.89;68.63
64833;HTU21D;51290;45.060;38.948;2023-03-14T04:51:44;4.87;68.52
64833;HTU21D;51290;45.060;38.948;2023-03-14T04:54:11;4.87;68.52
64833;HTU21D;51290;45.060;38.948;2023-03-14T04:56:38;4.88;68.57
64833;HTU21D;51290;45.060;38.948;2023-03-14T04:59:04;4.89;68.45
64833;HTU21D;51290;45.060;38.948;2023-03-14T05:01:32;4.88;68.38
64833;HTU21D;51290;45.060;38.948;2023-03-14T05:04:21;4.88;68.38
64833;HTU21D;51290;45.060;38.948;2023-03-14T05:07:07;4.87;68.29
64833;HTU21D;51290;45.060;38.948;2023-03-14T05:09:45;4.86;68.35
64833;HTU21D;51290;45.060;38.948;2023-03-14T05:12:28;4.87;68.37
64833;HTU21D;51290;45.060;38.948;2023-03-14T05:15:20;4.88;68.41
64833;HTU21D;51290;45.060;38.948;2023-03-14T05:17:59;4.90;68.44
64833;HTU21D;51290;45.060;38.948;2023-03-14T05:20:51;4.95;68.39
64833;HTU21D;51290;45.060;38.948;2023-03-14T05:23:33;4.98;68.25
64833;HTU21D;51290;45.060;38.948;2023-03-14T05:26:19;4.98;68.20
64833;HTU21D;51290;45.060;38.948;2023-03-14T05:29:05;5.00;68.30
64833;HTU21D;51290;45.060;38.948;2023-03-14T05:31:54;5.02;68.20
64833;HTU21D;51290;45.060;38.948;2023-03-14T05:34:40;5.04;68.26
64833;HTU21D;51290;45.060;38.948;2023-03-14T05:37:16;5.08;68.23
64833;HTU21D;51290;45.060;38.948;2023-03-14T05:40:09;5.13;68.28
64833;HTU21D;51290;45.060;38.948;2023-03-14T05:42:54;5.21;68.23
64833;HTU21D;51290;45.060;38.948;2023-03-14T05:45:52;5.25;67.93
64833;HTU21D;51290;45.060;38.948;2023-03-14T05:48:33;5.28;67.83
64833;HTU21D;51290;45.060;38.948;2023-03-14T05:51:08;5.32;67.69
64833;HTU21D;51290;45.060;38.948;2023-03-14T05:53:45;5.34;67.80
64833;HTU21D;51290;45.060;38.948;2023-03-14T05:56:30;5.36;67.84
64833;HTU21D;51290;45.060;38.948;2023-03-14T05:59:11;5.42;67.85
64833;HTU21D;51290;45.060;38.948;2023-03-14T06:02:08;5.50;67.84
64833;HTU21D;51290;45.060;38.948;2023-03-14T06:04:45;5.55;67.72
64833;HTU21D;51290;45.060;38.948;2023-03-14T06:07:11;5.63;67.69
64833;HTU21D;51290;45.060;38.948;2023-03-14T06:09:38;5.70;67.50
64833;HTU21D;51290;45.060;38.948;2023-03-14T06:12:06;5.76;67.44
64833;HTU21D;51290;45.060;38.948;2023-03-14T06:14:38;5.83;67.44
64833;HTU21D;51290;45.060;38.948;2023-03-14T06:17:04;5.91;67.44
64833;HTU21D;51290;45.060;38.948;2023-03-14T06:19:37;6.01;67.48
64833;HTU21D;51290;45.060;38.948;2023-03-14T06:22:03;6.12;67.23
64833;HTU21D;51290;45.060;38.948;2023-03-14T06:24:30;6.13;66.63
64833;HTU21D;51290;45.060;38.948;2023-03-14T06:26:57;6.11;66.57
64833;HTU21D;51290;45.060;38.948;2023-03-14T06:29:23;6.12;66.64
64833;HTU21D;51290;45.060;38.948;2023-03-14T06:31:49;6.12;66.42
64833;HTU21D;51290;45.060;38.948;2023-03-14T06:34:17;6.13;66.74
64833;HTU21D;51290;45.060;38.948;2023-03-14T06:36:43;6.15;66.56
64833;HTU21D;51290;45.060;38.948;2023-03-14T06:39:09;6.14;66.60
64833;HTU21D;51290;45.060;38.948;2023-03-14T06:41:39;6.15;66.62
64833;HTU21D;51290;45.060;38.948;2023-03-14T06:44:07;6.16;66.36
64833;HTU21D;51290;45.060;38.948;2023-03-14T06:46:33;6.13;66.36
64833;HTU21D;51290;45.060;38.948;2023-03-14T06:48:59;6.13;66.39
64833;HTU21D;51290;45.060;38.948;2023-03-14T06:51:25;6.13;66.43
64833;HTU21D;51290;45.060;38.948;2023-03-14T06:53:51;6.14;66.31
64833;HTU21D;51290;45.060;38.948;2023-03-14T06:56:21;6.15;66.42
64833;HTU21D;51290;45.060;38.948;2023-03-14T06:58:47;6.17;66.50
64833;HTU21D;51290;45.060;38.948;2023-03-14T07:01:33;6.25;66.57
64833;HTU21D;51290;45.060;38.948;2023-03-14T07:04:11;6.29;66.34
64833;HTU21D;51290;45.060;38.948;2023-03-14T07:06:42;6.31;66.33
64833;HTU21D;51290;45.060;38.948;2023-03-14T07:09:14;6.31;66.26
64833;HTU21D;51290;45.060;38.948;2023-03-14T07:11:46;6.31;66.27
64833;HTU21D;51290;45.060;38.948;2023-03-14T07:14:13;6.35;66.36
64833;HTU21D;51290;45.060;38.948;2023-03-14T07:16:39;6.39;66.38
64833;HTU21D;51290;45.060;38.948;2023-03-14T07:19:06;6.42;66.20
64833;HTU21D;51290;45.060;38.948;2023-03-14T07:21:32;6.42;66.09
64833;HTU21D;51290;45.060;38.948;2023-03-14T07:24:04;6.43;66.12
64833;HTU21D;51290;45.060;38.948;2023-03-14T07:26:31;6.48;66.25
64833;HTU21D;51290;45.060;38.948;2023-03-14T07:28:59;6.57;66.38
64833;HTU21D;51290;45.060;38.948;2023-03-14T07:31:25;6.68;66.14
64833;HTU21D;51290;45.060;38.948;2023-03-14T07:33:52;6.75;66.11
64833;HTU21D;51290;45.060;38.948;2023-03-14T07:36:20;6.79;65.97
64833;HTU21D;51290;45.060;38.948;2023-03-14T07:38:47;6.83;65.98
64833;HTU21D;51290;45.060;38.948;2023-03-14T07:41:35;6.89;65.88
64833;HTU21D;51290;45.060;38.948;2023-03-14T07:44:40;6.97;65.93
64833;HTU21D;51290;45.060;38.948;2023-03-14T07:47:06;7.03;65.83
64833;HTU21D;51290;45.060;38.948;2023-03-14T07:49:31;7.11;65.78
64833;HTU21D;51290;45.060;38.948;2023-03-14T07:51:57;7.16;65.45
64833;HTU21D;51290;45.060;38.948;2023-03-14T07:54:24;7.19;65.51
64833;HTU21D;51290;45.060;38.948;2023-03-14T07:56:51;7.28;65.41
64833;HTU21D;51290;45.060;38.948;2023-03-14T07:59:18;7.34;65.41
64833;HTU21D;51290;45.060;38.948;2023-03-14T08:01:44;7.41;65.28
64833;HTU21D;51290;45.060;38.948;2023-03-14T08:04:10;7.45;65.32
64833;HTU21D;51290;45.060;38.948;2023-03-14T08:06:36;7.49;65.14
64833;HTU21D;51290;45.060;38.948;2023-03-14T08:09:03;7.55;65.22
64833;HTU21D;51290;45.060;38.948;2023-03-14T08:11:29;7.55;64.74
64833;HTU21D;51290;45.060;38.948;2023-03-14T08:13:55;7.53;64.78
64833;HTU21D;51290;45.060;38.948;2023-03-14T08:16:22;7.54;64.98
64833;HTU21D;51290;45.060;38.948;2023-03-14T08:18:48;7.60;65.04
64833;HTU21D;51290;45.060;38.948;2023-03-14T08:21:14;7.63;64.73
64833;HTU21D;51290;45.060;38.948;2023-03-14T08:23:40;7.65;64.73
64833;HTU21D;51290;45.060;38.948;2023-03-14T08:26:07;7.67;64.59
64833;HTU21D;51290;45.060;38.948;2023-03-14T08:28:33;7.70;64.79
64833;HTU21D;51290;45.060;38.948;2023-03-14T08:31:00;7.78;64.83
64833;HTU21D;51290;45.060;38.948;2023-03-14T08:33:28;7.85;64.29
64833;HTU21D;51290;45.060;38.948;2023-03-14T08:35:55;7.85;64.10
64833;HTU21D;51290;45.060;38.948;2023-03-14T08:38:21;7.87;64.19
64833;HTU21D;51290;45.060;38.948;2023-03-14T08:40:48;7.93;64.47
64833;HTU21D;51290;45.060;38.948;2023-03-14T08:43:15;8.05;64.03
64833;HTU21D;51290;45.060;38.948;2023-03-14T08:45:41;8.12;63.73
64833;HTU21D;51290;45.060;38.948;2023-03-14T08:48:07;8.17;63.66
64833;HTU21D;51290;45.060;38.948;2023-03-14T08:50:33;8.17;63.11
64833;HTU21D;51290;45.060;38.948;2023-03-14T08:52:59;8.08;63.13
64833;HTU21D;51290;45.060;38.948;2023-03-14T08:55:26;8.04;63.44
64833;HTU21D;51290;45.060;38.948;2023-03-14T08:57:55;8.02;63.57
64833;HTU21D;51290;45.060;38.948;2023-03-14T09:00:21;8.01;63.59
64833;HTU21D;51290;45.060;38.948;2023-03-14T09:02:47;8.01;63.71
64833;HTU21D;51290;45.060;38.948;2023-03-14T09:05:13;8.00;63.80
64833;HTU21D;51290;45.060;38.948;2023-03-14T09:07:40;7.94;63.79
64833;HTU21D;51290;45.060;38.948;2023-03-14T09:10:07;7.88;63.75
64833;HTU21D;51290;45.060;38.948;2023-03-14T09:12:34;7.81;63.78
64833;HTU21D;51290;45.060;38.948;2023-03-14T09:15:00;7.72;63.83
64833;HTU21D;51290;45.060;38.948;2023-03-14T09:17:26;7.65;64.02
64833;HTU21D;51290;45.060;38.948;2023-03-14T09:19:52;7.56;64.23
64833;HTU21D;51290;45.060;38.948;2023-03-14T09:22:18;7.46;64.31
64833;HTU21D;51290;45.060;38.948;2023-03-14T09:24:46;7.38;64.52
64833;HTU21D;51290;45.060;38.948;2023-03-14T09:27:12;7.30;64.72
64833;HTU21D;51290;45.060;38.948;2023-03-14T09:29:38;7.28;64.89
64833;HTU21D;51290;45.060;38.948;2023-03-14T09:32:04;7.25;65.01
64833;HTU21D;51290;45.060;38.948;2023-03-14T09:34:30;7.24;65.09
64833;HTU21D;51290;45.060;38.948;2023-03-14T09:36:56;7.24;65.17
64833;HTU21D;51290;45.060;38.948;2023-03-14T09:39:22;7.25;65.43
64833;HTU21D;51290;45.060;38.948;2023-03-14T09:41:50;7.27;65.41
64833;HTU21D;51290;45.060;38.948;2023-03-14T09:44:27;7.33;65.45
64833;HTU21D;51290;45.060;38.948;2023-03-14T09:46:58;7.40;65.39
64833;HTU21D;51290;45.060;38.948;2023-03-14T09:49:34;7.49;65.36
64833;HTU21D;51290;45.060;38.948;2023-03-14T09:52:07;7.56;65.38
64833;HTU21D;51290;45.060;38.948;2023-03-14T09:54:47;7.63;65.13
64833;HTU21D;51290;45.060;38.948;2023-03-14T09:57:23;7.67;65.13
64833;HTU21D;51290;45.060;38.948;2023-03-14T09:59:51;7.74;65.05
64833;HTU21D;51290;45.060;38.948;2023-03-14T10:02:23;7.79;65.01
64833;HTU21D;51290;45.060;38.948;2023-03-14T10:04:51;7.88;64.95
64833;HTU21D;51290;45.060;38.948;2023-03-14T10:07:37;7.97;64.78
64833;HTU21D;51290;45.060;38.948;2023-03-14T10:12:46;8.12;64.53
64833;HTU21D;51290;45.060;38.948;2023-03-14T10:15:15;8.23;64.69
64833;HTU21D;51290;45.060;38.948;2023-03-14T10:17:48;8.41;64.32
64833;HTU21D;51290;45.060;38.948;2023-03-14T10:20:29;8.51;63.97
64833;HTU21D;51290;45.060;38.948;2023-03-14T10:23:23;8.60;63.67
64833;HTU21D;51290;45.060;38.948;2023-03-14T10:26:05;8.63;63.47
64833;HTU21D;51290;45.060;38.948;2023-03-14T10:28:34;8.71;63.23
64833;HTU21D;51290;45.060;38.948;2023-03-14T10:31:03;8.71;62.78
64833;HTU21D;51290;45.060;38.948;2023-03-14T10:33:32;8.66;62.53
64833;HTU21D;51290;45.060;38.948;2023-03-14T10:38:30;8.53;62.84
64833;HTU21D;51290;45.060;38.948;2023-03-14T10:40:57;8.53;63.05
64833;HTU21D;51290;45.060;38.948;2023-03-14T10:43:35;8.53;62.95
64833;HTU21D;51290;45.060;38.948;2023-03-14T10:46:15;8.53;62.90
64833;HTU21D;51290;45.060;38.948;2023-03-14T10:49:26;8.51;63.06
64833;HTU21D;51290;45.060;38.948;2023-03-14T10:51:53;8.55;63.17
64833;HTU21D;51290;45.060;38.948;2023-03-14T10:54:22;8.58;63.24
64833;HTU21D;51290;45.060;38.948;2023-03-14T10:57:00;8.64;63.11
64833;HTU21D;51290;45.060;38.948;2023-03-14T10:59:35;8.65;62.79
64833;HTU21D;51290;45.060;38.948;2023-03-14T11:07:52;8.67;62.70
64833;HTU21D;51290;45.060;38.948;2023-03-14T11:10:39;8.73;62.96
64833;HTU21D;51290;45.060;38.948;2023-03-14T11:13:28;8.74;62.53
64833;HTU21D;51290;45.060;38.948;2023-03-14T11:35:34;8.83;62.41
64833;HTU21D;51290;45.060;38.948;2023-03-14T11:38:29;8.97;62.42
64833;HTU21D;51290;45.060;38.948;2023-03-14T11:40:57;9.11;62.50
64833;HTU21D;51290;45.060;38.948;2023-03-14T11:43:32;9.24;62.24
64833;HTU21D;51290;45.060;38.948;2023-03-14T11:46:10;9.35;62.28
64833;HTU21D;51290;45.060;38.948;2023-03-14T11:48:43;9.45;62.12
64833;HTU21D;51290;45.060;38.948;2023-03-14T11:51:20;9.50;61.90
64833;HTU21D;51290;45.060;38.948;2023-03-14T11:56:47;9.65;61.44
64833;HTU21D;51290;45.060;38.948;2023-03-14T11:59:19;9.68;61.20
64833;HTU21D;51290;45.060;38.948;2023-03-14T12:07:49;9.83;61.42
64833;HTU21D;51290;45.060;38.948;2023-03-14T12:10:26;9.84;61.31
64833;HTU21D;51290;45.060;38.948;2023-03-14T12:12:53;9.81;61.34
64833;HTU21D;51290;45.060;38.948;2023-03-14T12:15:21;9.82;61.47
64833;HTU21D;51290;45.060;38.948;2023-03-14T12:17:54;9.82;61.28
64833;HTU21D;51290;45.060;38.948;2023-03-14T12:20:23;9.83;61.41
64833;HTU21D;51290;45.060;38.948;2023-03-14T12:23:05;9.83;61.32
64833;HTU21D;51290;45.060;38.948;2023-03-14T12:25:33;9.81;61.33
64833;HTU21D;51290;45.060;38.948;2023-03-14T12:30:41;9.82;61.19
64833;HTU21D;51290;45.060;38.948;2023-03-14T12:35:46;9.90;61.37
64833;HTU21D;51290;45.060;38.948;2023-03-14T12:38:59;9.96;61.43
64833;HTU21D;51290;45.060;38.948;2023-03-14T12:41:35;9.99;61.34
64833;HTU21D;51290;45.060;38.948;2023-03-14T12:44:38;10.03;61.39
64833;HTU21D;51290;45.060;38.948;2023-03-14T12:49:51;10.06;61.03
64833;HTU21D;51290;45.060;38.948;2023-03-14T12:52:43;10.08;61.20
64833;HTU21D;51290;45.060;38.948;2023-03-14T12:55:24;10.11;61.23
64833;HTU21D;51290;45.060;38.948;2023-03-14T13:01:01;10.30;61.42
64833;HTU21D;51290;45.060;38.948;2023-03-14T13:03:58;10.40;61.24
64833;HTU21D;51290;45.060;38.948;2023-03-14T13:06:46;10.48;61.20
64833;HTU21D;51290;45.060;38.948;2023-03-14T13:11:54;10.56;61.03
64833;HTU21D;51290;45.060;38.948;2023-03-14T13:14:20;10.57;61.00
64833;HTU21D;51290;45.060;38.948;2023-03-14T13:16:50;10.62;61.12
64833;HTU21D;51290;45.060;38.948;2023-03-14T13:19:20;10.67;61.07
64833;HTU21D;51290;45.060;38.948;2023-03-14T13:21:50;10.71;60.83
64833;HTU21D;51290;45.060;38.948;2023-03-14T13:24:25;10.73;60.98
64833;HTU21D;51290;45.060;38.948;2023-03-14T13:26:55;10.74;60.88
64833;HTU21D;51290;45.060;38.948;2023-03-14T13:29:28;10.69;60.51
64833;HTU21D;51290;45.060;38.948;2023-03-14T13:31:56;10.60;60.58
64833;HTU21D;51290;45.060;38.948;2023-03-14T13:34:29;10.53;60.77
64833;HTU21D;51290;45.060;38.948;2023-03-14T13:36:56;10.48;60.89
64833;HTU21D;51290;45.060;38.948;2023-03-14T13:39:25;10.48;60.99
64833;HTU21D;51290;45.060;38.948;2023-03-14T13:41:52;10.50;61.06
64833;HTU21D;51290;45.060;38.948;2023-03-14T13:44:29;10.53;61.12
64833;HTU21D;51290;45.060;38.948;2023-03-14T13:47:01;10.58;61.24
64833;HTU21D;51290;45.060;38.948;2023-03-14T13:49:29;10.65;61.25
64833;HTU21D;51290;45.060;38.948;2023-03-14T13:51:58;10.69;61.09
64833;HTU21D;51290;45.060;38.948;2023-03-14T13:54:26;10.71;61.18
64833;HTU21D;51290;45.060;38.948;2023-03-14T13:57:04;10.73;61.24
64833;HTU21D;51290;45.060;38.948;2023-03-14T13:59:32;10.78;61.25
64833;HTU21D;51290;45.060;38.948;2023-03-14T14:02:17;10.80;61.12
64833;HTU21D;51290;45.060;38.948;2023-03-14T14:04:44;10.80;61.05
64833;HTU21D;51290;45.060;38.948;2023-03-14T14:07:15;10.81;60.96
64833;HTU21D;51290;45.060;38.948;2023-03-14T14:09:47;10.82;60.85
64833;HTU21D;51290;45.060;38.948;2023-03-14T14:12:21;10.79;60.82
64833;HTU21D;51290;45.060;38.948;2023-03-14T14:15:01;10.78;61.05
64833;HTU21D;51290;45.060;38.948;2023-03-14T14:17:32;10.73;60.97
64833;HTU21D;51290;45.060;38.948;2023-03-14T14:20:01;10.70;61.02
64833;HTU21D;51290;45.060;38.948;2023-03-14T14:22:30;10.68;61.09
64833;HTU21D;51290;45.060;38.948;2023-03-14T14:24:57;10.62;61.09
64833;HTU21D;51290;45.060;38.948;2023-03-14T14:27:28;10.58;61.00
64833;HTU21D;51290;45.060;38.948;2023-03-14T14:32:37;10.46;61.15
64833;HTU21D;51290;45.060;38.948;2023-03-14T14:35:04;10.40;61.17
64833;HTU21D;51290;45.060;38.948;2023-03-14T14:37:33;10.34;61.32
64833;HTU21D;51290;45.060;38.948;2023-03-14T14:40:07;10.30;61.50
64833;HTU21D;51290;45.060;38.948;2023-03-14T14:42:33;10.28;61.58
64833;HTU21D;51290;45.060;38.948;2023-03-14T14:44:59;10.28;61.67
64833;HTU21D;51290;45.060;38.948;2023-03-14T14:47:29;10.29;61.69
64833;HTU21D;51290;45.060;38.948;2023-03-14T14:49:59;10.30;61.74
64833;HTU21D;51290;45.060;38.948;2023-03-14T14:52:40;10.33;61.78
64833;HTU21D;51290;45.060;38.948;2023-03-14T14:55:17;10.34;61.81
64833;HTU21D;51290;45.060;38.948;2023-03-14T14:57:54;10.36;61.87
64833;HTU21D;51290;45.060;38.948;2023-03-14T15:00:26;10.37;61.86
64833;HTU21D;51290;45.060;38.948;2023-03-14T15:02:59;10.35;61.83
64833;HTU21D;51290;45.060;38.948;2023-03-14T15:05:27;10.35;61.85
64833;HTU21D;51290;45.060;38.948;2023-03-14T15:07:55;10.33;61.87
64833;HTU21D;51290;45.060;38.948;2023-03-14T15:10:24;10.33;61.92
64833;HTU21D;51290;45.060;38.948;2023-03-14T15:12:50;10.34;61.96
64833;HTU21D;51290;45.060;38.948;2023-03-14T15:15:17;10.35;61.97
64833;HTU21D;51290;45.060;38.948;2023-03-14T15:17:43;10.36;61.89
64833;HTU21D;51290;45.060;38.948;2023-03-14T15:20:15;10.35;61.93
64833;HTU21D;51290;45.060;38.948;2023-03-14T15:22:42;10.35;61.92
64833;HTU21D;51290;45.060;38.948;2023-03-14T15:25:09;10.34;61.96
64833;HTU21D;51290;45.060;38.948;2023-03-14T15:27:35;10.33;61.99
64833;HTU21D;51290;45.060;38.948;2023-03-14T15:30:02;10.31;62.02
64833;HTU21D;51290;45.060;38.948;2023-03-14T15:32:28;10.31;62.05
64833;HTU21D;51290;45.060;38.948;2023-03-14T15:34:54;10.30;62.02
64833;HTU21D;51290;45.060;38.948;2023-03-14T15:37:21;10.30;62.05
64833;HTU21D;51290;45.060;38.948;2023-03-14T15:39:47;10.30;62.09
64833;HTU21D;51290;45.060;38.948;2023-03-14T15:42:13;10.33;62.18
64833;HTU21D;51290;45.060;38.948;2023-03-14T15:44:39;10.35;62.18
64833;HTU21D;51290;45.060;38.948;2023-03-14T15:47:05;10.36;62.17
64833;HTU21D;51290;45.060;38.948;2023-03-14T15:49:32;10.37;62.15
64833;HTU21D;51290;45.060;38.948;2023-03-14T15:51:58;10.38;62.08
64833;HTU21D;51290;45.060;38.948;2023-03-14T15:54:25;10.38;62.08
64833;HTU21D;51290;45.060;38.948;2023-03-14T15:56:57;10.37;62.11
64833;HTU21D;51290;45.060;38.948;2023-03-14T15:59:24;10.36;62.12
64833;HTU21D;51290;45.060;38.948;2023-03-14T16:01:50;10.34;62.13
64833;HTU21D;51290;45.060;38.948;2023-03-14T16:04:16;10.35;62.18
64833;HTU21D;51290;45.060;38.948;2023-03-14T16:06:43;10.33;62.21
64833;HTU21D;51290;45.060;38.948;2023-03-14T16:09:11;10.33;62.23
64833;HTU21D;51290;45.060;38.948;2023-03-14T16:11:37;10.31;62.24
64833;HTU21D;51290;45.060;38.948;2023-03-14T16:14:03;10.33;62.25
64833;HTU21D;51290;45.060;38.948;2023-03-14T16:16:29;10.31;62.25
64833;HTU21D;51290;45.060;38.948;2023-03-14T16:18:55;10.30;62.26
64833;HTU21D;51290;45.060;38.948;2023-03-14T16:21:21;10.30;62.30
64833;HTU21D;51290;45.060;38.948;2023-03-14T16:23:48;10.30;62.30
64833;HTU21D;51290;45.060;38.948;2023-03-14T16:26:17;10.29;62.26
64833;HTU21D;51290;45.060;38.948;2023-03-14T16:28:44;10.28;62.25
64833;HTU21D;51290;45.060;38.948;2023-03-14T16:31:13;10.28;62.25
64833;HTU21D;51290;45.060;38.948;2023-03-14T16:33:41;10.27;62.24
64833;HTU21D;51290;45.060;38.948;2023-03-14T16:36:10;10.26;62.20